KCDR

Chadron Municipal Airport

Chadron, Nebraska, USA
METAR KCDR 181553Z AUTO 05003KT 10SM CLR M03/M06 A2983 RMK AO2 SLP139 T10281061
Observed Flight Rules
Dec-18 @ 15:53 UTC (39 minutes ago) Visual Flight Rules
Wind Visibility Clouds
50° at 3 knots 10 miles
  • Clear skies
Temperatures Readings
Current -3°C / 27°F
Dewpoint -6°C / 21°F
Humidity 80%
Altimeter 29.83" Hg
Pressure 1013.9 hPa
Elevation 1010
METAR KCDR 181553Z AUTO 05003KT 10SM CLR M03/M06 A2983 RMK AO2 SLP139 T10281061
Observed Flight Rules
Dec-18 @ 15:53 UTC
(39 minutes ago)
VFR
Wind Visibility
50° at 3 knots 10 miles
Clouds
  • Clear skies
Temperature Dewpoint
-3°C / 27°F -6°C / 21°F
Humidity Altimeter Pressure
80% 29.83" Hg 1013.9 hPa